sensor_id;sensor_type;location;lat;lon;timestamp;P1;durP1;ratioP1;P2;durP2;ratioP2
11829;SDS011;5972;42.134;24.718;2023-06-22T00:00:53;9.32;;;8.35;;
11829;SDS011;5972;42.134;24.718;2023-06-22T00:03:21;10.48;;;8.85;;
11829;SDS011;5972;42.134;24.718;2023-06-22T00:05:49;9.15;;;8.30;;
11829;SDS011;5972;42.134;24.718;2023-06-22T00:08:16;9.05;;;8.15;;
11829;SDS011;5972;42.134;24.718;2023-06-22T00:10:44;11.35;;;8.70;;
11829;SDS011;5972;42.134;24.718;2023-06-22T00:13:12;10.02;;;8.52;;
11829;SDS011;5972;42.134;24.718;2023-06-22T00:15:41;11.95;;;8.73;;
11829;SDS011;5972;42.134;24.718;2023-06-22T00:18:09;12.38;;;8.93;;
11829;SDS011;5972;42.134;24.718;2023-06-22T00:20:37;12.70;;;9.85;;
11829;SDS011;5972;42.134;24.718;2023-06-22T00:23:04;10.40;;;9.30;;
11829;SDS011;5972;42.134;24.718;2023-06-22T00:25:34;11.70;;;10.25;;
11829;SDS011;5972;42.134;24.718;2023-06-22T00:28:01;13.48;;;10.40;;
11829;SDS011;5972;42.134;24.718;2023-06-22T00:30:29;13.48;;;10.65;;
11829;SDS011;5972;42.134;24.718;2023-06-22T00:32:58;11.77;;;9.68;;
11829;SDS011;5972;42.134;24.718;2023-06-22T00:35:25;10.73;;;9.60;;
11829;SDS011;5972;42.134;24.718;2023-06-22T00:37:55;14.35;;;10.63;;
11829;SDS011;5972;42.134;24.718;2023-06-22T00:40:27;12.23;;;11.05;;
11829;SDS011;5972;42.134;24.718;2023-06-22T00:42:54;12.02;;;10.77;;
11829;SDS011;5972;42.134;24.718;2023-06-22T00:45:24;12.93;;;9.93;;
11829;SDS011;5972;42.134;24.718;2023-06-22T00:47:52;12.13;;;9.70;;
11829;SDS011;5972;42.134;24.718;2023-06-22T00:50:22;10.98;;;9.88;;
11829;SDS011;5972;42.134;24.718;2023-06-22T00:52:51;11.32;;;9.90;;
11829;SDS011;5972;42.134;24.718;2023-06-22T00:55:18;11.38;;;10.07;;
11829;SDS011;5972;42.134;24.718;2023-06-22T00:57:46;12.77;;;10.48;;
11829;SDS011;5972;42.134;24.718;2023-06-22T01:00:14;11.45;;;10.30;;
11829;SDS011;5972;42.134;24.718;2023-06-22T01:02:43;11.07;;;9.98;;
11829;SDS011;5972;42.134;24.718;2023-06-22T01:05:11;10.27;;;9.27;;
11829;SDS011;5972;42.134;24.718;2023-06-22T01:07:42;10.10;;;9.23;;
11829;SDS011;5972;42.134;24.718;2023-06-22T01:10:21;10.85;;;9.57;;
11829;SDS011;5972;42.134;24.718;2023-06-22T01:12:55;10.35;;;9.35;;
11829;SDS011;5972;42.134;24.718;2023-06-22T01:15:28;10.35;;;9.27;;
11829;SDS011;5972;42.134;24.718;2023-06-22T01:17:59;11.45;;;10.13;;
11829;SDS011;5972;42.134;24.718;2023-06-22T01:20:30;10.15;;;9.15;;
11829;SDS011;5972;42.134;24.718;2023-06-22T01:23:05;16.42;;;10.07;;
11829;SDS011;5972;42.134;24.718;2023-06-22T01:25:43;12.68;;;10.30;;
11829;SDS011;5972;42.134;24.718;2023-06-22T01:28:19;14.27;;;10.50;;
11829;SDS011;5972;42.134;24.718;2023-06-22T01:30:57;12.52;;;10.88;;
11829;SDS011;5972;42.134;24.718;2023-06-22T01:33:31;11.20;;;10.18;;
11829;SDS011;5972;42.134;24.718;2023-06-22T01:36:00;13.45;;;10.95;;
11829;SDS011;5972;42.134;24.718;2023-06-22T01:38:28;13.52;;;11.57;;
11829;SDS011;5972;42.134;24.718;2023-06-22T01:40:56;12.90;;;11.70;;
11829;SDS011;5972;42.134;24.718;2023-06-22T01:43:24;14.65;;;11.75;;
11829;SDS011;5972;42.134;24.718;2023-06-22T01:45:54;14.27;;;12.02;;
11829;SDS011;5972;42.134;24.718;2023-06-22T01:48:22;13.25;;;11.98;;
11829;SDS011;5972;42.134;24.718;2023-06-22T01:50:51;12.65;;;11.45;;
11829;SDS011;5972;42.134;24.718;2023-06-22T01:53:20;13.43;;;11.70;;
11829;SDS011;5972;42.134;24.718;2023-06-22T01:55:47;13.68;;;12.27;;
11829;SDS011;5972;42.134;24.718;2023-06-22T01:58:17;13.75;;;12.32;;
11829;SDS011;5972;42.134;24.718;2023-06-22T02:00:51;15.23;;;11.57;;
11829;SDS011;5972;42.134;24.718;2023-06-22T02:03:26;12.10;;;11.05;;
11829;SDS011;5972;42.134;24.718;2023-06-22T02:06:00;12.77;;;11.00;;
11829;SDS011;5972;42.134;24.718;2023-06-22T02:08:33;13.15;;;11.88;;
11829;SDS011;5972;42.134;24.718;2023-06-22T02:11:04;12.07;;;10.98;;
11829;SDS011;5972;42.134;24.718;2023-06-22T02:13:32;12.50;;;11.40;;
11829;SDS011;5972;42.134;24.718;2023-06-22T02:16:01;11.82;;;10.73;;
11829;SDS011;5972;42.134;24.718;2023-06-22T02:18:28;12.82;;;11.52;;
11829;SDS011;5972;42.134;24.718;2023-06-22T02:20:55;11.27;;;10.27;;
11829;SDS011;5972;42.134;24.718;2023-06-22T02:23:22;13.25;;;10.88;;
11829;SDS011;5972;42.134;24.718;2023-06-22T02:25:49;13.73;;;10.98;;
11829;SDS011;5972;42.134;24.718;2023-06-22T02:28:16;13.27;;;11.40;;
11829;SDS011;5972;42.134;24.718;2023-06-22T02:30:45;12.05;;;10.95;;
11829;SDS011;5972;42.134;24.718;2023-06-22T02:33:14;11.90;;;10.70;;
11829;SDS011;5972;42.134;24.718;2023-06-22T02:35:43;13.68;;;11.02;;
11829;SDS011;5972;42.134;24.718;2023-06-22T02:38:14;13.07;;;10.52;;
11829;SDS011;5972;42.134;24.718;2023-06-22T02:40:42;12.52;;;11.23;;
11829;SDS011;5972;42.134;24.718;2023-06-22T02:43:09;11.52;;;10.25;;
11829;SDS011;5972;42.134;24.718;2023-06-22T02:45:36;11.55;;;10.25;;
11829;SDS011;5972;42.134;24.718;2023-06-22T02:48:03;11.60;;;10.43;;
11829;SDS011;5972;42.134;24.718;2023-06-22T02:50:32;11.40;;;10.40;;
11829;SDS011;5972;42.134;24.718;2023-06-22T02:52:59;11.48;;;10.40;;
11829;SDS011;5972;42.134;24.718;2023-06-22T02:55:26;12.05;;;10.75;;
11829;SDS011;5972;42.134;24.718;2023-06-22T02:57:53;11.55;;;10.35;;
11829;SDS011;5972;42.134;24.718;2023-06-22T03:00:20;12.65;;;10.77;;
11829;SDS011;5972;42.134;24.718;2023-06-22T03:02:47;12.00;;;10.80;;
11829;SDS011;5972;42.134;24.718;2023-06-22T03:05:15;11.07;;;10.05;;
11829;SDS011;5972;42.134;24.718;2023-06-22T03:07:44;10.70;;;9.70;;
11829;SDS011;5972;42.134;24.718;2023-06-22T03:10:11;10.10;;;8.63;;
11829;SDS011;5972;42.134;24.718;2023-06-22T03:12:40;9.90;;;8.15;;
11829;SDS011;5972;42.134;24.718;2023-06-22T03:15:09;8.43;;;7.50;;
11829;SDS011;5972;42.134;24.718;2023-06-22T03:17:38;9.50;;;8.27;;
11829;SDS011;5972;42.134;24.718;2023-06-22T03:20:06;13.85;;;8.18;;
11829;SDS011;5972;42.134;24.718;2023-06-22T03:22:36;8.63;;;7.82;;
11829;SDS011;5972;42.134;24.718;2023-06-22T03:25:05;8.30;;;7.47;;
11829;SDS011;5972;42.134;24.718;2023-06-22T03:27:38;7.78;;;7.18;;
11829;SDS011;5972;42.134;24.718;2023-06-22T03:30:06;10.55;;;8.30;;
11829;SDS011;5972;42.134;24.718;2023-06-22T03:32:35;11.60;;;8.23;;
11829;SDS011;5972;42.134;24.718;2023-06-22T03:35:02;12.20;;;8.38;;
11829;SDS011;5972;42.134;24.718;2023-06-22T03:37:31;9.18;;;8.32;;
11829;SDS011;5972;42.134;24.718;2023-06-22T03:39:58;14.88;;;8.80;;
11829;SDS011;5972;42.134;24.718;2023-06-22T03:42:26;12.48;;;8.95;;
11829;SDS011;5972;42.134;24.718;2023-06-22T03:44:53;10.75;;;8.68;;
11829;SDS011;5972;42.134;24.718;2023-06-22T03:47:20;9.75;;;8.95;;
11829;SDS011;5972;42.134;24.718;2023-06-22T03:49:47;11.68;;;8.70;;
11829;SDS011;5972;42.134;24.718;2023-06-22T03:52:14;10.50;;;9.50;;
11829;SDS011;5972;42.134;24.718;2023-06-22T03:54:40;13.90;;;9.23;;
11829;SDS011;5972;42.134;24.718;2023-06-22T03:57:07;9.90;;;8.70;;
11829;SDS011;5972;42.134;24.718;2023-06-22T03:59:35;9.20;;;8.45;;
11829;SDS011;5972;42.134;24.718;2023-06-22T04:02:03;13.50;;;8.45;;
11829;SDS011;5972;42.134;24.718;2023-06-22T04:04:30;10.60;;;8.63;;
11829;SDS011;5972;42.134;24.718;2023-06-22T04:06:57;8.90;;;8.13;;
11829;SDS011;5972;42.134;24.718;2023-06-22T04:09:24;9.68;;;8.73;;
11829;SDS011;5972;42.134;24.718;2023-06-22T04:11:50;12.27;;;9.55;;
11829;SDS011;5972;42.134;24.718;2023-06-22T04:14:17;11.20;;;9.90;;
11829;SDS011;5972;42.134;24.718;2023-06-22T04:16:45;11.43;;;8.60;;
11829;SDS011;5972;42.134;24.718;2023-06-22T04:19:12;9.85;;;8.70;;
11829;SDS011;5972;42.134;24.718;2023-06-22T04:21:41;12.00;;;9.30;;
11829;SDS011;5972;42.134;24.718;2023-06-22T04:24:09;10.00;;;9.00;;
11829;SDS011;5972;42.134;24.718;2023-06-22T04:26:36;10.48;;;8.82;;
11829;SDS011;5972;42.134;24.718;2023-06-22T04:29:03;12.25;;;8.90;;
11829;SDS011;5972;42.134;24.718;2023-06-22T04:31:31;9.65;;;8.68;;
11829;SDS011;5972;42.134;24.718;2023-06-22T04:34:03;10.70;;;8.45;;
11829;SDS011;5972;42.134;24.718;2023-06-22T04:36:35;12.15;;;8.57;;
11829;SDS011;5972;42.134;24.718;2023-06-22T04:39:07;12.70;;;7.82;;
11829;SDS011;5972;42.134;24.718;2023-06-22T04:41:35;11.35;;;7.70;;
11829;SDS011;5972;42.134;24.718;2023-06-22T04:44:11;8.30;;;7.43;;
11829;SDS011;5972;42.134;24.718;2023-06-22T04:46:38;10.73;;;7.90;;
11829;SDS011;5972;42.134;24.718;2023-06-22T04:49:07;11.38;;;8.68;;
11829;SDS011;5972;42.134;24.718;2023-06-22T04:51:39;9.68;;;8.48;;
11829;SDS011;5972;42.134;24.718;2023-06-22T04:54:07;10.55;;;8.70;;
11829;SDS011;5972;42.134;24.718;2023-06-22T04:56:34;16.63;;;8.88;;
11829;SDS011;5972;42.134;24.718;2023-06-22T04:59:02;10.50;;;8.60;;
11829;SDS011;5972;42.134;24.718;2023-06-22T05:01:29;16.38;;;8.75;;
11829;SDS011;5972;42.134;24.718;2023-06-22T05:03:57;13.05;;;8.00;;
11829;SDS011;5972;42.134;24.718;2023-06-22T05:06:27;10.60;;;8.23;;
11829;SDS011;5972;42.134;24.718;2023-06-22T05:08:54;17.73;;;8.57;;
11829;SDS011;5972;42.134;24.718;2023-06-22T05:11:23;9.57;;;7.90;;
11829;SDS011;5972;42.134;24.718;2023-06-22T05:13:51;11.50;;;7.68;;
11829;SDS011;5972;42.134;24.718;2023-06-22T05:16:18;13.90;;;7.95;;
11829;SDS011;5972;42.134;24.718;2023-06-22T05:18:48;8.35;;;7.55;;
11829;SDS011;5972;42.134;24.718;2023-06-22T05:21:16;13.23;;;8.30;;
11829;SDS011;5972;42.134;24.718;2023-06-22T05:23:44;18.05;;;8.25;;
11829;SDS011;5972;42.134;24.718;2023-06-22T05:26:11;11.10;;;8.02;;
11829;SDS011;5972;42.134;24.718;2023-06-22T05:28:38;10.18;;;7.78;;
11829;SDS011;5972;42.134;24.718;2023-06-22T05:31:05;10.93;;;7.10;;
11829;SDS011;5972;42.134;24.718;2023-06-22T05:33:32;9.85;;;7.00;;
11829;SDS011;5972;42.134;24.718;2023-06-22T05:35:59;12.40;;;6.70;;
11829;SDS011;5972;42.134;24.718;2023-06-22T05:38:25;7.82;;;6.47;;
11829;SDS011;5972;42.134;24.718;2023-06-22T05:40:54;11.02;;;6.85;;
11829;SDS011;5972;42.134;24.718;2023-06-22T05:43:21;9.43;;;6.53;;
11829;SDS011;5972;42.134;24.718;2023-06-22T05:45:48;11.02;;;6.50;;
11829;SDS011;5972;42.134;24.718;2023-06-22T05:48:14;12.30;;;7.20;;
11829;SDS011;5972;42.134;24.718;2023-06-22T05:50:41;7.35;;;6.22;;
11829;SDS011;5972;42.134;24.718;2023-06-22T05:53:08;11.82;;;6.80;;
11829;SDS011;5972;42.134;24.718;2023-06-22T05:55:35;7.03;;;6.53;;
11829;SDS011;5972;42.134;24.718;2023-06-22T05:58:03;9.70;;;6.70;;
11829;SDS011;5972;42.134;24.718;2023-06-22T06:00:30;12.27;;;8.13;;
11829;SDS011;5972;42.134;24.718;2023-06-22T06:02:57;11.45;;;6.88;;
11829;SDS011;5972;42.134;24.718;2023-06-22T06:05:28;8.20;;;6.75;;
11829;SDS011;5972;42.134;24.718;2023-06-22T06:07:55;7.40;;;5.70;;
11829;SDS011;5972;42.134;24.718;2023-06-22T06:10:22;11.60;;;6.85;;
11829;SDS011;5972;42.134;24.718;2023-06-22T06:12:49;6.68;;;5.95;;
11829;SDS011;5972;42.134;24.718;2023-06-22T06:15:17;8.82;;;6.70;;
11829;SDS011;5972;42.134;24.718;2023-06-22T06:17:45;9.02;;;6.90;;
11829;SDS011;5972;42.134;24.718;2023-06-22T06:20:12;7.18;;;6.47;;
11829;SDS011;5972;42.134;24.718;2023-06-22T06:22:39;7.57;;;6.72;;
11829;SDS011;5972;42.134;24.718;2023-06-22T06:25:08;12.07;;;6.57;;
11829;SDS011;5972;42.134;24.718;2023-06-22T06:27:35;7.10;;;6.50;;
11829;SDS011;5972;42.134;24.718;2023-06-22T06:30:02;7.00;;;6.30;;
11829;SDS011;5972;42.134;24.718;2023-06-22T06:32:31;7.00;;;6.50;;
11829;SDS011;5972;42.134;24.718;2023-06-22T06:34:58;7.82;;;6.70;;
11829;SDS011;5972;42.134;24.718;2023-06-22T06:37:24;7.93;;;6.78;;
11829;SDS011;5972;42.134;24.718;2023-06-22T06:39:51;10.98;;;6.90;;
11829;SDS011;5972;42.134;24.718;2023-06-22T06:42:18;7.32;;;6.57;;
11829;SDS011;5972;42.134;24.718;2023-06-22T06:44:47;9.48;;;6.50;;
11829;SDS011;5972;42.134;24.718;2023-06-22T06:47:15;8.55;;;6.60;;
11829;SDS011;5972;42.134;24.718;2023-06-22T06:49:43;8.20;;;6.50;;
11829;SDS011;5972;42.134;24.718;2023-06-22T06:52:10;8.93;;;6.15;;
11829;SDS011;5972;42.134;24.718;2023-06-22T06:54:36;10.35;;;6.93;;
11829;SDS011;5972;42.134;24.718;2023-06-22T06:57:03;9.43;;;6.53;;
11829;SDS011;5972;42.134;24.718;2023-06-22T06:59:30;7.25;;;6.55;;
11829;SDS011;5972;42.134;24.718;2023-06-22T07:01:57;10.82;;;6.88;;
11829;SDS011;5972;42.134;24.718;2023-06-22T07:04:24;10.52;;;6.20;;
11829;SDS011;5972;42.134;24.718;2023-06-22T07:06:52;7.13;;;6.50;;
11829;SDS011;5972;42.134;24.718;2023-06-22T07:09:19;7.10;;;6.50;;
11829;SDS011;5972;42.134;24.718;2023-06-22T07:11:46;7.00;;;6.30;;
11829;SDS011;5972;42.134;24.718;2023-06-22T07:14:12;9.18;;;6.28;;
11829;SDS011;5972;42.134;24.718;2023-06-22T07:16:39;14.40;;;6.55;;
11829;SDS011;5972;42.134;24.718;2023-06-22T07:19:07;8.07;;;6.53;;
11829;SDS011;5972;42.134;24.718;2023-06-22T07:21:34;6.82;;;6.22;;
11829;SDS011;5972;42.134;24.718;2023-06-22T07:24:02;7.97;;;5.82;;
11829;SDS011;5972;42.134;24.718;2023-06-22T07:26:30;6.97;;;6.18;;
11829;SDS011;5972;42.134;24.718;2023-06-22T07:28:57;9.23;;;6.03;;
11829;SDS011;5972;42.134;24.718;2023-06-22T07:31:24;10.57;;;5.85;;
11829;SDS011;5972;42.134;24.718;2023-06-22T07:33:51;14.43;;;6.55;;
11829;SDS011;5972;42.134;24.718;2023-06-22T07:36:18;13.45;;;6.57;;
11829;SDS011;5972;42.134;24.718;2023-06-22T07:38:45;6.70;;;6.05;;
11829;SDS011;5972;42.134;24.718;2023-06-22T07:41:13;8.60;;;6.20;;
11829;SDS011;5972;42.134;24.718;2023-06-22T07:43:40;10.27;;;6.00;;
11829;SDS011;5972;42.134;24.718;2023-06-22T07:46:06;11.85;;;6.20;;
11829;SDS011;5972;42.134;24.718;2023-06-22T07:48:36;10.75;;;5.78;;
11829;SDS011;5972;42.134;24.718;2023-06-22T07:51:04;6.43;;;5.93;;
11829;SDS011;5972;42.134;24.718;2023-06-22T07:53:32;7.40;;;5.45;;
11829;SDS011;5972;42.134;24.718;2023-06-22T07:55:59;6.28;;;5.68;;
11829;SDS011;5972;42.134;24.718;2023-06-22T07:58:27;9.40;;;5.90;;
11829;SDS011;5972;42.134;24.718;2023-06-22T08:00:53;6.93;;;5.50;;
11829;SDS011;5972;42.134;24.718;2023-06-22T08:03:20;7.40;;;5.82;;
11829;SDS011;5972;42.134;24.718;2023-06-22T08:08:24;6.90;;;5.45;;
11829;SDS011;5972;42.134;24.718;2023-06-22T08:10:51;7.18;;;5.63;;
11829;SDS011;5972;42.134;24.718;2023-06-22T08:13:17;9.02;;;5.13;;
11829;SDS011;5972;42.134;24.718;2023-06-22T08:15:46;7.55;;;5.65;;
11829;SDS011;5972;42.134;24.718;2023-06-22T08:18:12;6.05;;;5.45;;
11829;SDS011;5972;42.134;24.718;2023-06-22T08:20:39;7.15;;;5.57;;
11829;SDS011;5972;42.134;24.718;2023-06-22T08:23:06;6.80;;;5.93;;
11829;SDS011;5972;42.134;24.718;2023-06-22T08:25:33;6.22;;;5.10;;
11829;SDS011;5972;42.134;24.718;2023-06-22T08:28:00;6.55;;;6.05;;
11829;SDS011;5972;42.134;24.718;2023-06-22T08:30:27;7.53;;;5.10;;
11829;SDS011;5972;42.134;24.718;2023-06-22T08:32:55;6.78;;;5.45;;
11829;SDS011;5972;42.134;24.718;2023-06-22T08:35:22;6.85;;;6.10;;
11829;SDS011;5972;42.134;24.718;2023-06-22T08:37:50;6.40;;;5.60;;
11829;SDS011;5972;42.134;24.718;2023-06-22T08:40:19;6.10;;;5.60;;
11829;SDS011;5972;42.134;24.718;2023-06-22T08:42:47;6.55;;;5.38;;
11829;SDS011;5972;42.134;24.718;2023-06-22T08:45:14;6.10;;;5.60;;
11829;SDS011;5972;42.134;24.718;2023-06-22T08:47:41;7.68;;;5.50;;
11829;SDS011;5972;42.134;24.718;2023-06-22T08:50:10;7.72;;;5.70;;
11829;SDS011;5972;42.134;24.718;2023-06-22T08:52:37;9.07;;;5.20;;
11829;SDS011;5972;42.134;24.718;2023-06-22T08:55:06;5.57;;;5.05;;
11829;SDS011;5972;42.134;24.718;2023-06-22T08:57:34;6.20;;;5.60;;
11829;SDS011;5972;42.134;24.718;2023-06-22T09:00:02;6.35;;;5.38;;
11829;SDS011;5972;42.134;24.718;2023-06-22T09:02:32;7.30;;;5.28;;
11829;SDS011;5972;42.134;24.718;2023-06-22T09:05:02;14.02;;;5.15;;
11829;SDS011;5972;42.134;24.718;2023-06-22T09:07:31;6.05;;;5.45;;
11829;SDS011;5972;42.134;24.718;2023-06-22T09:09:59;6.13;;;5.25;;
11829;SDS011;5972;42.134;24.718;2023-06-22T09:12:26;6.50;;;5.75;;
11829;SDS011;5972;42.134;24.718;2023-06-22T09:14:55;6.75;;;5.70;;
11829;SDS011;5972;42.134;24.718;2023-06-22T09:17:22;5.43;;;5.03;;
11829;SDS011;5972;42.134;24.718;2023-06-22T09:19:49;5.80;;;5.20;;
11829;SDS011;5972;42.134;24.718;2023-06-22T09:22:16;7.82;;;5.50;;
11829;SDS011;5972;42.134;24.718;2023-06-22T09:24:44;6.22;;;5.28;;
11829;SDS011;5972;42.134;24.718;2023-06-22T09:27:11;5.50;;;5.00;;
11829;SDS011;5972;42.134;24.718;2023-06-22T09:29:38;6.15;;;5.30;;
11829;SDS011;5972;42.134;24.718;2023-06-22T09:32:05;6.53;;;5.00;;
11829;SDS011;5972;42.134;24.718;2023-06-22T09:34:32;5.97;;;5.47;;
11829;SDS011;5972;42.134;24.718;2023-06-22T09:36:59;5.07;;;4.68;;
11829;SDS011;5972;42.134;24.718;2023-06-22T09:39:27;5.40;;;5.00;;
11829;SDS011;5972;42.134;24.718;2023-06-22T09:41:55;4.80;;;4.50;;
11829;SDS011;5972;42.134;24.718;2023-06-22T09:44:24;5.75;;;5.25;;
11829;SDS011;5972;42.134;24.718;2023-06-22T09:46:51;6.03;;;5.53;;
11829;SDS011;5972;42.134;24.718;2023-06-22T09:49:18;6.50;;;4.88;;
11829;SDS011;5972;42.134;24.718;2023-06-22T09:51:44;5.78;;;5.28;;
11829;SDS011;5972;42.134;24.718;2023-06-22T09:54:11;6.55;;;5.15;;
11829;SDS011;5972;42.134;24.718;2023-06-22T09:56:38;5.70;;;5.20;;
11829;SDS011;5972;42.134;24.718;2023-06-22T09:59:06;6.00;;;5.43;;
11829;SDS011;5972;42.134;24.718;2023-06-22T10:01:33;5.70;;;5.30;;
11829;SDS011;5972;42.134;24.718;2023-06-22T10:03:59;7.93;;;4.93;;
11829;SDS011;5972;42.134;24.718;2023-06-22T10:06:26;5.80;;;5.30;;
11829;SDS011;5972;42.134;24.718;2023-06-22T10:08:53;6.05;;;5.43;;
11829;SDS011;5972;42.134;24.718;2023-06-22T10:11:20;5.63;;;5.22;;
11829;SDS011;5972;42.134;24.718;2023-06-22T10:13:52;6.03;;;5.35;;
11829;SDS011;5972;42.134;24.718;2023-06-22T10:16:20;6.25;;;5.25;;
11829;SDS011;5972;42.134;24.718;2023-06-22T10:18:47;5.55;;;5.00;;
11829;SDS011;5972;42.134;24.718;2023-06-22T10:21:13;5.30;;;4.90;;
11829;SDS011;5972;42.134;24.718;2023-06-22T10:23:40;5.90;;;5.30;;
11829;SDS011;5972;42.134;24.718;2023-06-22T10:26:07;5.90;;;5.40;;
11829;SDS011;5972;42.134;24.718;2023-06-22T10:28:34;6.75;;;5.30;;
11829;SDS011;5972;42.134;24.718;2023-06-22T10:31:01;6.32;;;5.72;;
11829;SDS011;5972;42.134;24.718;2023-06-22T10:33:29;6.55;;;5.78;;
11829;SDS011;5972;42.134;24.718;2023-06-22T10:35:55;6.20;;;5.20;;
11829;SDS011;5972;42.134;24.718;2023-06-22T10:38:22;5.70;;;5.30;;
11829;SDS011;5972;42.134;24.718;2023-06-22T10:40:49;6.70;;;6.03;;
11829;SDS011;5972;42.134;24.718;2023-06-22T10:43:16;5.90;;;5.40;;
11829;SDS011;5972;42.134;24.718;2023-06-22T10:45:42;8.18;;;5.30;;
11829;SDS011;5972;42.134;24.718;2023-06-22T10:48:09;7.47;;;5.38;;
11829;SDS011;5972;42.134;24.718;2023-06-22T10:50:37;7.93;;;5.70;;
11829;SDS011;5972;42.134;24.718;2023-06-22T10:53:04;8.75;;;5.13;;
11829;SDS011;5972;42.134;24.718;2023-06-22T10:55:31;6.20;;;5.50;;
11829;SDS011;5972;42.134;24.718;2023-06-22T10:57:58;7.15;;;5.40;;
11829;SDS011;5972;42.134;24.718;2023-06-22T11:00:24;6.38;;;5.75;;
11829;SDS011;5972;42.134;24.718;2023-06-22T11:02:51;5.95;;;5.55;;
11829;SDS011;5972;42.134;24.718;2023-06-22T11:05:18;6.45;;;5.65;;
11829;SDS011;5972;42.134;24.718;2023-06-22T11:07:46;6.28;;;5.68;;
11829;SDS011;5972;42.134;24.718;2023-06-22T11:10:14;6.50;;;6.00;;
11829;SDS011;5972;42.134;24.718;2023-06-22T11:12:41;7.40;;;5.75;;
11829;SDS011;5972;42.134;24.718;2023-06-22T11:15:08;7.38;;;5.75;;
11829;SDS011;5972;42.134;24.718;2023-06-22T11:17:35;7.05;;;5.50;;
11829;SDS011;5972;42.134;24.718;2023-06-22T11:20:03;7.07;;;6.10;;
11829;SDS011;5972;42.134;24.718;2023-06-22T11:22:35;6.82;;;6.03;;
11829;SDS011;5972;42.134;24.718;2023-06-22T11:25:04;9.60;;;5.90;;
11829;SDS011;5972;42.134;24.718;2023-06-22T11:27:32;7.03;;;5.70;;
11829;SDS011;5972;42.134;24.718;2023-06-22T11:29:59;6.50;;;5.90;;
11829;SDS011;5972;42.134;24.718;2023-06-22T11:32:26;6.10;;;5.60;;
11829;SDS011;5972;42.134;24.718;2023-06-22T11:34:53;6.10;;;5.57;;
11829;SDS011;5972;42.134;24.718;2023-06-22T11:37:19;6.85;;;6.25;;
11829;SDS011;5972;42.134;24.718;2023-06-22T11:39:46;6.28;;;5.78;;
11829;SDS011;5972;42.134;24.718;2023-06-22T11:42:14;6.72;;;6.13;;
11829;SDS011;5972;42.134;24.718;2023-06-22T11:44:41;6.45;;;5.90;;
11829;SDS011;5972;42.134;24.718;2023-06-22T11:47:09;6.07;;;5.43;;
11829;SDS011;5972;42.134;24.718;2023-06-22T11:49:35;6.40;;;5.90;;
11829;SDS011;5972;42.134;24.718;2023-06-22T11:52:02;7.28;;;5.78;;
11829;SDS011;5972;42.134;24.718;2023-06-22T11:54:29;6.13;;;5.63;;
11829;SDS011;5972;42.134;24.718;2023-06-22T11:56:56;6.05;;;5.55;;
11829;SDS011;5972;42.134;24.718;2023-06-22T11:59:24;6.10;;;5.60;;
11829;SDS011;5972;42.134;24.718;2023-06-22T12:01:51;6.70;;;6.10;;
11829;SDS011;5972;42.134;24.718;2023-06-22T12:04:17;8.90;;;5.82;;
11829;SDS011;5972;42.134;24.718;2023-06-22T12:06:44;6.43;;;5.93;;
11829;SDS011;5972;42.134;24.718;2023-06-22T12:09:11;6.28;;;5.68;;
11829;SDS011;5972;42.134;24.718;2023-06-22T12:11:39;6.25;;;5.75;;
11829;SDS011;5972;42.134;24.718;2023-06-22T12:14:05;5.72;;;5.22;;
11829;SDS011;5972;42.134;24.718;2023-06-22T12:16:34;6.65;;;6.15;;
11829;SDS011;5972;42.134;24.718;2023-06-22T12:19:00;5.85;;;5.43;;
11829;SDS011;5972;42.134;24.718;2023-06-22T12:21:27;6.22;;;5.72;;
11829;SDS011;5972;42.134;24.718;2023-06-22T12:23:54;6.82;;;6.22;;
11829;SDS011;5972;42.134;24.718;2023-06-22T12:26:21;6.70;;;6.10;;
11829;SDS011;5972;42.134;24.718;2023-06-22T12:28:47;8.75;;;5.97;;
11829;SDS011;5972;42.134;24.718;2023-06-22T12:31:14;6.13;;;5.65;;
11829;SDS011;5972;42.134;24.718;2023-06-22T12:33:43;6.47;;;5.97;;
11829;SDS011;5972;42.134;24.718;2023-06-22T12:36:09;7.22;;;6.07;;
11829;SDS011;5972;42.134;24.718;2023-06-22T12:38:36;6.32;;;5.82;;
11829;SDS011;5972;42.134;24.718;2023-06-22T12:41:03;6.35;;;5.85;;
11829;SDS011;5972;42.134;24.718;2023-06-22T12:43:30;6.22;;;5.35;;
11829;SDS011;5972;42.134;24.718;2023-06-22T12:45:56;6.82;;;6.07;;
11829;SDS011;5972;42.134;24.718;2023-06-22T12:48:25;6.30;;;5.70;;
11829;SDS011;5972;42.134;24.718;2023-06-22T12:50:54;7.32;;;5.85;;
11829;SDS011;5972;42.134;24.718;2023-06-22T12:53:20;6.55;;;5.95;;
11829;SDS011;5972;42.134;24.718;2023-06-22T12:55:48;6.65;;;5.95;;
11829;SDS011;5972;42.134;24.718;2023-06-22T12:58:15;7.18;;;6.22;;
11829;SDS011;5972;42.134;24.718;2023-06-22T13:00:42;5.93;;;5.43;;
11829;SDS011;5972;42.134;24.718;2023-06-22T13:03:09;6.57;;;5.93;;
11829;SDS011;5972;42.134;24.718;2023-06-22T13:05:35;7.38;;;6.22;;
11829;SDS011;5972;42.134;24.718;2023-06-22T13:08:04;8.20;;;6.15;;
11829;SDS011;5972;42.134;24.718;2023-06-22T13:10:31;6.32;;;5.50;;
11829;SDS011;5972;42.134;24.718;2023-06-22T13:12:58;10.50;;;6.13;;
11829;SDS011;5972;42.134;24.718;2023-06-22T13:15:26;6.18;;;5.57;;
11829;SDS011;5972;42.134;24.718;2023-06-22T13:17:53;6.25;;;5.75;;
11829;SDS011;5972;42.134;24.718;2023-06-22T13:20:20;6.22;;;5.47;;
11829;SDS011;5972;42.134;24.718;2023-06-22T13:22:47;8.93;;;6.25;;
11829;SDS011;5972;42.134;24.718;2023-06-22T13:25:15;15.57;;;6.18;;
11829;SDS011;5972;42.134;24.718;2023-06-22T13:27:44;10.82;;;6.20;;
11829;SDS011;5972;42.134;24.718;2023-06-22T13:30:11;6.95;;;5.88;;
11829;SDS011;5972;42.134;24.718;2023-06-22T13:32:38;6.57;;;5.97;;
11829;SDS011;5972;42.134;24.718;2023-06-22T13:35:07;6.53;;;5.70;;
11829;SDS011;5972;42.134;24.718;2023-06-22T13:37:34;6.15;;;5.70;;
11829;SDS011;5972;42.134;24.718;2023-06-22T13:40:01;6.47;;;5.88;;
11829;SDS011;5972;42.134;24.718;2023-06-22T13:42:31;5.93;;;5.53;;
11829;SDS011;5972;42.134;24.718;2023-06-22T13:44:58;7.22;;;5.63;;
11829;SDS011;5972;42.134;24.718;2023-06-22T13:47:25;14.73;;;6.18;;
11829;SDS011;5972;42.134;24.718;2023-06-22T13:49:52;6.38;;;5.78;;
11829;SDS011;5972;42.134;24.718;2023-06-22T13:52:18;8.02;;;6.15;;
11829;SDS011;5972;42.134;24.718;2023-06-22T13:54:45;6.55;;;6.03;;
11829;SDS011;5972;42.134;24.718;2023-06-22T13:57:13;7.63;;;6.47;;
11829;SDS011;5972;42.134;24.718;2023-06-22T13:59:41;6.57;;;6.03;;
11829;SDS011;5972;42.134;24.718;2023-06-22T14:04:41;16.27;;;7.20;;
11829;SDS011;5972;42.134;24.718;2023-06-22T14:07:07;13.15;;;7.40;;
11829;SDS011;5972;42.134;24.718;2023-06-22T14:09:34;18.88;;;7.15;;
11829;SDS011;5972;42.134;24.718;2023-06-22T14:14:37;20.20;;;7.68;;
11829;SDS011;5972;42.134;24.718;2023-06-22T14:17:05;34.55;;;7.90;;
11829;SDS011;5972;42.134;24.718;2023-06-22T14:19:32;22.17;;;7.78;;
11829;SDS011;5972;42.134;24.718;2023-06-22T14:21:59;14.88;;;7.35;;
11829;SDS011;5972;42.134;24.718;2023-06-22T14:24:26;14.15;;;7.10;;
11829;SDS011;5972;42.134;24.718;2023-06-22T14:26:53;21.92;;;7.40;;
11829;SDS011;5972;42.134;24.718;2023-06-22T14:29:20;10.80;;;7.22;;
11829;SDS011;5972;42.134;24.718;2023-06-22T14:31:47;19.58;;;6.80;;
11829;SDS011;5972;42.134;24.718;2023-06-22T14:34:16;18.17;;;7.20;;
11829;SDS011;5972;42.134;24.718;2023-06-22T14:36:43;8.18;;;6.15;;
11829;SDS011;5972;42.134;24.718;2023-06-22T14:39:10;9.13;;;6.63;;
11829;SDS011;5972;42.134;24.718;2023-06-22T14:41:36;9.50;;;6.78;;
11829;SDS011;5972;42.134;24.718;2023-06-22T14:44:03;12.68;;;6.82;;
11829;SDS011;5972;42.134;24.718;2023-06-22T14:46:30;11.38;;;6.65;;
11829;SDS011;5972;42.134;24.718;2023-06-22T14:48:57;9.77;;;6.60;;
11829;SDS011;5972;42.134;24.718;2023-06-22T14:51:25;7.25;;;6.55;;